Fall Branch, TN

12:43 AM EDT on August 31, 2014 (GMT -0400)
Sullivan Gardens | Change Station
CLOSE
Current Station
Personal Weather Station
Location: Fall Branch, TN
Elevation: 1695 ft
Nearby Weather Stations

Elev 1695 ft 36.43 °N, 82.59 °W | Updated 21 seconds ago

Overcast
Overcast
74.4 °F
Feels Like 75 °F
N
0.0
Wind Variable Wind from SSW
Gusts 0.0 mph

Today
High -- | Low -- °F
--% Chance of Precip.
Yesterday
High -- | Low -- °F
Precip. -- in
7:00 AM 7:59 PM
Waxing Crescent, 27% visible
Pressure 30.07 in
Visibility 10.0 miles
Clouds Mostly Cloudy 8000 ft
Overcast 25000 ft
Heat Index 75 °F
Dew Point 68 °F
Humidity 80%
Rainfall 0.00 in
Snow Depth Not available.
UV 0.0 out of 12
Pollen 9.30 out of 12
Air Quality Not available.
Flu Activity Not available.
METAR KTRI 310353Z 00000KT 10SM BKN080 OVC250 23/18 A3015 RMK AO2 SLP181 T02330183 $

More Conditions Fewer Conditions

Pressure 30.07 in
Visibility 10.0 miles
Clouds Mostly Cloudy 8000 ft
Overcast 25000 ft
Heat Index 75 °F
Dew Point 68 °F
Humidity 80%
Rainfall 0.00 in
Snow Depth Not available.
UV 0.0 out of 12
Pollen 9.30 out of 12
Air Quality Not available.
Flu Activity Not available.
METAR KTRI 310353Z 00000KT 10SM BKN080 OVC250 23/18 A3015 RMK AO2 SLP181 T02330183 $

More Conditions Fewer Conditions

10-Day Weather Forecast

Almanac

Astronomy

Aug. 31, 2014 Rise Set
Actual Time 7:00 AM EDT 7:59 PM EDT
Civil Twilight 6:34 AM EDT 8:26 PM EDT
Nautical Twilight 6:03 AM EDT 8:57 PM EDT
Astronomical Twilight 5:30 AM EDT 9:29 PM EDT
Moon 12:35 PM EDT 11:24 PM EDT
Length of Visible Light 13h 51m
Length of Day
12h 58m
Tomorrow will be 2m 13s shorter.
Waxing Crescent, 27% of the Moon is Illuminated
Today
Waxing Crescent
Sep 2
First Quarter
Sep 8
Full
Sep 15
Last Quarter
Sep 24
New

Yesterday's Extremes

State Highs State Lows

Community

WunderPhotos

Upload Photos

1,748,783 photos uploaded!

Nearby

Snow Depth

Station Depth Elevation
No new snow has been reported.

Earthquake Activity

City Distance Mag. Time & Date
No recent earthquake activity has been reported nearby.
Minimum magnitude displayed is 2.5.

Coastal Water Temperatures

Place Temperature
No Stations Reporting

Nearby Weather Stations